Newcomb, New Mexico
Current Conditions -  °F | °C
As of 10:53 AM on Monday 26 Jan 2015 (Local Time) from KFMN Reporting Station
Clear Clear  
Wind Chill: 39°   Ceiling: Unl
Heat Index: 43°   Visibility: 10mi
Dew Point: 24°   Wind: 6mph
Humidity: 47%   Direction: 120°ESE
Pressure: 30.37"   Gusts: NA
Location:  36.29°N, 108.71°W
Report Text: KFMN 261753Z 12005KT 10SM CLR 06/M04 A3037 RMK AO2 SLP296 T00611044 10061 21039 58004
Loading
Personal Weather Stations






























Interactive Weather Map New forecast layout! Learn more

10-Day Weather Forecast

Advertisements
Track Severe Weather on mobile